sensor_id;sensor_type;location;lat;lon;timestamp;P1;durP1;ratioP1;P2;durP2;ratioP2
29302;SDS011;60019;45.556;12.004;2023-09-07T06:09:40;8.73;;;2.90;;
29302;SDS011;60019;45.556;12.004;2023-09-07T06:15:42;3.83;;;3.13;;
29302;SDS011;60019;45.556;12.004;2023-09-07T06:21:44;4.18;;;2.70;;
29302;SDS011;60019;45.556;12.004;2023-09-07T06:27:45;4.00;;;3.00;;
29302;SDS011;60019;45.556;12.004;2023-09-07T06:33:47;4.32;;;3.30;;
29302;SDS011;60019;45.556;12.004;2023-09-07T06:39:50;3.25;;;2.60;;
29302;SDS011;60019;45.556;12.004;2023-09-07T06:45:52;4.43;;;3.20;;
29302;SDS011;60019;45.556;12.004;2023-09-07T06:51:54;3.90;;;2.88;;
29302;SDS011;60019;45.556;12.004;2023-09-07T06:57:56;8.80;;;3.38;;
29302;SDS011;60019;45.556;12.004;2023-09-07T07:03:58;5.47;;;2.75;;
29302;SDS011;60019;45.556;12.004;2023-09-07T07:10:01;5.00;;;3.28;;
29302;SDS011;60019;45.556;12.004;2023-09-07T08:40:32;37.38;;;7.63;;
29302;SDS011;60019;45.556;12.004;2023-09-07T08:46:36;28.95;;;6.88;;
29302;SDS011;60019;45.556;12.004;2023-09-07T08:52:38;38.13;;;7.72;;
29302;SDS011;60019;45.556;12.004;2023-09-07T08:58:40;40.83;;;7.13;;
29302;SDS011;60019;45.556;12.004;2023-09-07T09:04:42;14.95;;;4.82;;
29302;SDS011;60019;45.556;12.004;2023-09-07T09:10:44;21.48;;;6.00;;
29302;SDS011;60019;45.556;12.004;2023-09-07T09:16:49;25.63;;;5.30;;
29302;SDS011;60019;45.556;12.004;2023-09-07T09:22:51;34.30;;;6.72;;
29302;SDS011;60019;45.556;12.004;2023-09-07T09:28:55;35.53;;;7.93;;
29302;SDS011;60019;45.556;12.004;2023-09-07T09:40:59;40.22;;;8.05;;
29302;SDS011;60019;45.556;12.004;2023-09-07T09:47:00;17.70;;;5.50;;
29302;SDS011;60019;45.556;12.004;2023-09-07T09:53:03;17.73;;;5.55;;
29302;SDS011;60019;45.556;12.004;2023-09-07T09:59:05;11.67;;;4.43;;
29302;SDS011;60019;45.556;12.004;2023-09-07T10:11:10;8.68;;;3.88;;
29302;SDS011;60019;45.556;12.004;2023-09-07T10:17:21;10.93;;;4.15;;
29302;SDS011;60019;45.556;12.004;2023-09-07T10:23:23;8.57;;;3.72;;
29302;SDS011;60019;45.556;12.004;2023-09-07T10:29:25;8.52;;;3.17;;
29302;SDS011;60019;45.556;12.004;2023-09-07T10:35:26;7.95;;;3.83;;
29302;SDS011;60019;45.556;12.004;2023-09-07T10:41:39;8.10;;;3.17;;
29302;SDS011;60019;45.556;12.004;2023-09-07T10:47:42;12.45;;;3.67;;
29302;SDS011;60019;45.556;12.004;2023-09-07T10:53:44;2.95;;;2.65;;
29302;SDS011;60019;45.556;12.004;2023-09-07T10:59:46;6.60;;;3.03;;
29302;SDS011;60019;45.556;12.004;2023-09-07T11:05:48;4.25;;;3.05;;
29302;SDS011;60019;45.556;12.004;2023-09-07T11:11:50;4.05;;;3.22;;
29302;SDS011;60019;45.556;12.004;2023-09-07T11:17:51;6.13;;;3.58;;
29302;SDS011;60019;45.556;12.004;2023-09-07T11:23:53;6.65;;;3.35;;
29302;SDS011;60019;45.556;12.004;2023-09-07T11:29:55;6.68;;;3.35;;
29302;SDS011;60019;45.556;12.004;2023-09-07T11:35:57;5.43;;;3.13;;
29302;SDS011;60019;45.556;12.004;2023-09-07T11:41:59;8.75;;;3.70;;
29302;SDS011;60019;45.556;12.004;2023-09-07T11:48:01;9.85;;;3.83;;
29302;SDS011;60019;45.556;12.004;2023-09-07T11:54:03;10.45;;;4.63;;
29302;SDS011;60019;45.556;12.004;2023-09-07T12:00:05;6.35;;;4.30;;
29302;SDS011;60019;45.556;12.004;2023-09-07T12:06:12;4.32;;;2.97;;
29302;SDS011;60019;45.556;12.004;2023-09-07T12:12:14;4.47;;;3.45;;
29302;SDS011;60019;45.556;12.004;2023-09-07T12:18:17;7.35;;;4.43;;
29302;SDS011;60019;45.556;12.004;2023-09-07T12:24:21;18.00;;;10.98;;
29302;SDS011;60019;45.556;12.004;2023-09-07T12:30:23;14.35;;;8.32;;
29302;SDS011;60019;45.556;12.004;2023-09-07T12:36:25;15.32;;;8.55;;
29302;SDS011;60019;45.556;12.004;2023-09-07T12:42:30;11.38;;;6.40;;
29302;SDS011;60019;45.556;12.004;2023-09-07T12:48:32;8.90;;;6.70;;
29302;SDS011;60019;45.556;12.004;2023-09-07T12:54:34;9.52;;;5.85;;
29302;SDS011;60019;45.556;12.004;2023-09-07T13:00:37;8.18;;;5.85;;
29302;SDS011;60019;45.556;12.004;2023-09-07T13:06:39;8.63;;;5.93;;
29302;SDS011;60019;45.556;12.004;2023-09-07T13:12:41;7.00;;;5.18;;
29302;SDS011;60019;45.556;12.004;2023-09-07T13:18:43;6.93;;;4.65;;
29302;SDS011;60019;45.556;12.004;2023-09-07T13:24:44;7.80;;;4.55;;
29302;SDS011;60019;45.556;12.004;2023-09-07T13:48:51;4.03;;;3.10;;
29302;SDS011;60019;45.556;12.004;2023-09-07T13:54:52;4.20;;;3.00;;
29302;SDS011;60019;45.556;12.004;2023-09-07T14:00:54;3.30;;;2.80;;
29302;SDS011;60019;45.556;12.004;2023-09-07T14:06:56;6.57;;;3.33;;
29302;SDS011;60019;45.556;12.004;2023-09-07T14:12:58;4.45;;;3.20;;
29302;SDS011;60019;45.556;12.004;2023-09-07T21:39:06;8.27;;;5.50;;
29302;SDS011;60019;45.556;12.004;2023-09-07T21:45:08;7.50;;;6.03;;
29302;SDS011;60019;45.556;12.004;2023-09-07T21:51:10;9.15;;;6.45;;
29302;SDS011;60019;45.556;12.004;2023-09-07T21:57:11;8.15;;;6.57;;
29302;SDS011;60019;45.556;12.004;2023-09-07T22:03:13;9.20;;;6.33;;
29302;SDS011;60019;45.556;12.004;2023-09-07T22:09:15;6.63;;;5.75;;
29302;SDS011;60019;45.556;12.004;2023-09-07T22:15:17;6.50;;;5.67;;
29302;SDS011;60019;45.556;12.004;2023-09-07T22:21:19;6.30;;;5.27;;
29302;SDS011;60019;45.556;12.004;2023-09-07T22:27:22;9.43;;;5.93;;
29302;SDS011;60019;45.556;12.004;2023-09-07T22:33:25;7.40;;;5.70;;
29302;SDS011;60019;45.556;12.004;2023-09-07T22:39:27;7.75;;;5.50;;
29302;SDS011;60019;45.556;12.004;2023-09-07T22:45:35;6.85;;;5.70;;
29302;SDS011;60019;45.556;12.004;2023-09-07T22:51:40;7.65;;;5.57;;
29302;SDS011;60019;45.556;12.004;2023-09-07T22:57:41;6.43;;;5.60;;
29302;SDS011;60019;45.556;12.004;2023-09-07T23:03:43;5.90;;;5.30;;
29302;SDS011;60019;45.556;12.004;2023-09-07T23:09:45;5.90;;;5.30;;
29302;SDS011;60019;45.556;12.004;2023-09-07T23:15:47;7.03;;;5.67;;
29302;SDS011;60019;45.556;12.004;2023-09-07T23:21:48;6.35;;;5.53;;
29302;SDS011;60019;45.556;12.004;2023-09-07T23:27:51;7.30;;;4.93;;
29302;SDS011;60019;45.556;12.004;2023-09-07T23:33:53;7.70;;;5.43;;
29302;SDS011;60019;45.556;12.004;2023-09-07T23:39:56;6.50;;;5.88;;
29302;SDS011;60019;45.556;12.004;2023-09-07T23:45:58;7.95;;;5.57;;
29302;SDS011;60019;45.556;12.004;2023-09-07T23:52:00;7.27;;;5.40;;
29302;SDS011;60019;45.556;12.004;2023-09-07T23:58:02;6.18;;;5.00;;
